createdAt,value
2018-05-02T00:01:04.028Z,50.40
2018-05-02T00:03:30.229Z,50.20
2018-05-02T00:05:56.427Z,49.80
2018-05-02T00:08:22.648Z,49.90
2018-05-02T00:10:49.681Z,49.80
2018-05-02T00:13:16.233Z,49.80
2018-05-02T00:15:43.381Z,49.80
2018-05-02T00:18:10.257Z,49.40
2018-05-02T00:20:36.355Z,49.40
2018-05-02T00:23:02.685Z,49.30
2018-05-02T00:25:28.889Z,49.10
2018-05-02T00:27:55.637Z,49.10
2018-05-02T00:30:21.849Z,49.90
2018-05-02T00:32:49.115Z,49.00
2018-05-02T00:35:17.064Z,49.30
2018-05-02T00:37:44.554Z,50.00
2018-05-02T00:40:10.772Z,49.90
2018-05-02T00:42:37.938Z,49.90
2018-05-02T00:45:04.180Z,49.70
2018-05-02T00:47:31.029Z,49.70
2018-05-02T00:49:57.218Z,49.50
2018-05-02T00:52:23.629Z,49.70
2018-05-02T00:54:50.837Z,49.70
2018-05-02T00:57:17.128Z,49.70
2018-05-02T00:59:44.013Z,49.40
2018-05-02T01:02:10.252Z,49.50
2018-05-02T01:04:36.477Z,49.70
2018-05-02T01:07:02.681Z,50.00
2018-05-02T01:09:30.141Z,49.90
2018-05-02T01:11:58.150Z,49.30
2018-05-02T01:14:25.742Z,49.30
2018-05-02T01:16:52.331Z,49.80
2018-05-02T01:19:19.553Z,48.90
2018-05-02T01:21:45.751Z,49.10
2018-05-02T01:24:12.610Z,49.20
2018-05-02T01:26:39.824Z,49.00
2018-05-02T01:29:07.170Z,49.20
2018-05-02T01:31:34.714Z,48.90
2018-05-02T01:34:00.897Z,48.90
2018-05-02T01:36:27.297Z,48.90
2018-05-02T01:38:54.235Z,48.70
2018-05-02T01:41:21.359Z,48.90
2018-05-02T01:43:48.470Z,49.10
2018-05-02T01:46:15.243Z,49.10
2018-05-02T01:48:54.311Z,49.00
2018-05-02T01:51:21.931Z,49.10
2018-05-02T01:53:48.343Z,49.10
2018-05-02T01:56:16.838Z,49.60
2018-05-02T01:58:43.258Z,49.50
2018-05-02T02:01:11.097Z,49.20
2018-05-02T02:03:37.965Z,49.20
2018-05-02T02:06:04.184Z,49.10
2018-05-02T02:08:30.911Z,49.10
2018-05-02T02:10:58.292Z,49.20
2018-05-02T02:13:25.281Z,49.40
2018-05-02T02:15:52.777Z,49.30
2018-05-02T02:18:19.106Z,49.30
2018-05-02T02:20:45.886Z,49.40
2018-05-02T02:23:12.088Z,49.30
2018-05-02T02:25:38.973Z,49.50
2018-05-02T02:28:05.287Z,49.40
2018-05-02T02:30:31.513Z,49.70
2018-05-02T02:32:58.598Z,49.30
2018-05-02T02:35:25.533Z,49.10
2018-05-02T02:37:53.705Z,48.90
2018-05-02T02:40:20.757Z,48.80
2018-05-02T02:42:48.289Z,48.90
2018-05-02T02:45:15.249Z,49.00
2018-05-02T02:47:41.618Z,48.90
2018-05-02T02:50:08.666Z,49.10
2018-05-02T02:52:34.947Z,49.10
2018-05-02T02:55:01.313Z,49.10
2018-05-02T02:57:28.276Z,49.30
2018-05-02T02:59:54.590Z,49.30
2018-05-02T03:02:21.607Z,49.60
2018-05-02T03:04:48.378Z,49.50
2018-05-02T03:07:14.935Z,49.90
2018-05-02T03:09:41.226Z,49.30
2018-05-02T03:12:09.705Z,50.20
2018-05-02T03:14:36.644Z,50.60
2018-05-02T03:17:03.620Z,50.60
2018-05-02T03:19:30.348Z,50.60
2018-05-02T03:21:56.736Z,50.40
2018-05-02T03:24:23.719Z,50.80
2018-05-02T03:26:50.889Z,51.10
2018-05-02T03:29:18.064Z,51.10
2018-05-02T03:31:45.058Z,52.60
2018-05-02T03:34:12.792Z,53.50
2018-05-02T03:36:40.824Z,53.80
2018-05-02T03:39:08.568Z,53.80
2018-05-02T03:41:35.507Z,55.30
2018-05-02T03:44:03.070Z,56.00
2018-05-02T03:46:30.519Z,55.80
2018-05-02T03:48:58.062Z,56.50
2018-05-02T03:51:24.829Z,56.50
2018-05-02T03:53:51.775Z,55.50
2018-05-02T03:56:17.972Z,55.50
2018-05-02T03:58:44.260Z,56.60
2018-05-02T04:01:22.735Z,56.20
2018-05-02T04:04:02.261Z,56.50
2018-05-02T04:06:41.735Z,56.50
2018-05-02T04:09:08.438Z,56.40
2018-05-02T04:11:35.401Z,57.10
2018-05-02T04:14:03.034Z,56.40
2018-05-02T04:16:29.827Z,56.40
2018-05-02T04:18:56.640Z,56.60
2018-05-02T04:21:23.933Z,56.80
2018-05-02T04:23:52.000Z,56.90
2018-05-02T04:26:19.008Z,56.90
2018-05-02T04:28:46.597Z,57.50
2018-05-02T04:31:12.959Z,57.50
2018-05-02T04:33:40.188Z,57.80
2018-05-02T04:36:07.239Z,58.00
2018-05-02T04:38:33.450Z,58.00
2018-05-02T04:41:10.873Z,58.50
2018-05-02T04:43:37.273Z,58.20
2018-05-02T04:46:04.233Z,58.20
2018-05-02T04:48:30.423Z,58.00
2018-05-02T04:50:57.967Z,58.40
2018-05-02T04:53:26.035Z,58.20
2018-05-02T04:55:53.653Z,58.00
2018-05-02T04:58:19.885Z,58.00
2018-05-02T05:00:46.519Z,58.20
2018-05-02T05:03:13.810Z,58.40
2018-05-02T05:05:40.004Z,58.30
2018-05-02T05:08:07.515Z,58.40
2018-05-02T05:10:34.567Z,58.30
2018-05-02T05:13:02.172Z,57.90
2018-05-02T05:15:28.447Z,58.00
2018-05-02T05:17:54.594Z,57.60
2018-05-02T05:20:20.947Z,58.20
2018-05-02T05:22:48.018Z,57.10
2018-05-02T05:25:14.433Z,57.10
2018-05-02T05:27:41.484Z,56.60
2018-05-02T05:30:09.222Z,56.60
2018-05-02T05:32:36.225Z,56.40
2018-05-02T05:35:04.304Z,56.20
2018-05-02T05:37:31.098Z,56.10
2018-05-02T05:39:57.333Z,56.50
2018-05-02T05:42:23.558Z,56.60
2018-05-02T05:44:50.751Z,56.90
2018-05-02T05:47:17.149Z,56.00
2018-05-02T05:49:44.394Z,55.80
2018-05-02T05:52:12.059Z,56.00
2018-05-02T05:54:38.395Z,56.00
2018-05-02T05:57:05.901Z,55.90
2018-05-02T05:59:33.965Z,55.40
2018-05-02T06:02:01.805Z,55.40
2018-05-02T06:04:28.615Z,55.30
2018-05-02T06:06:56.411Z,55.30
2018-05-02T06:09:23.759Z,55.30
2018-05-02T06:11:51.401Z,55.40
2018-05-02T06:14:18.310Z,55.40
2018-05-02T06:16:45.078Z,55.60
2018-05-02T06:19:11.896Z,56.40
2018-05-02T06:21:39.162Z,56.40
2018-05-02T06:24:05.954Z,56.00
2018-05-02T06:26:32.152Z,56.80
2018-05-02T06:28:58.914Z,56.50
2018-05-02T06:31:25.255Z,55.90
2018-05-02T06:33:52.452Z,54.30
2018-05-02T06:36:19.240Z,55.00
2018-05-02T06:38:45.426Z,54.30
2018-05-02T06:41:11.620Z,54.40
2018-05-02T06:43:39.204Z,53.60
2018-05-02T06:46:06.503Z,52.50
2018-05-02T06:48:34.554Z,50.70
2018-05-02T06:51:00.798Z,50.80
2018-05-02T06:53:27.035Z,50.70
2018-05-02T06:55:53.263Z,51.10
2018-05-02T06:58:19.750Z,49.40
2018-05-02T07:00:46.540Z,49.90
2018-05-02T07:03:14.159Z,49.70
2018-05-02T07:05:40.883Z,49.70
2018-05-02T07:08:07.081Z,48.10
2018-05-02T07:10:34.733Z,46.20
2018-05-02T07:13:01.605Z,46.20
2018-05-02T07:15:29.131Z,45.40
2018-05-02T07:18:03.515Z,45.00
2018-05-02T07:20:36.789Z,44.80
2018-05-02T07:23:03.623Z,44.10
2018-05-02T07:25:30.023Z,44.60
2018-05-02T07:27:57.934Z,44.30
2018-05-02T07:30:24.731Z,44.20
2018-05-02T07:32:52.889Z,45.60
2018-05-02T07:35:19.708Z,45.60
2018-05-02T07:37:47.753Z,44.30
2018-05-02T07:40:14.421Z,44.30
2018-05-02T07:42:41.425Z,43.50
2018-05-02T07:45:09.133Z,43.40
2018-05-02T07:47:37.123Z,42.70
2018-05-02T07:50:03.867Z,42.60
2018-05-02T07:52:30.214Z,42.20
2018-05-02T07:54:57.240Z,43.50
2018-05-02T07:57:23.419Z,43.50
2018-05-02T07:59:49.631Z,43.50
2018-05-02T08:02:16.377Z,43.00
2018-05-02T08:04:44.262Z,42.80
2018-05-02T08:07:10.905Z,42.90
2018-05-02T08:09:37.529Z,41.00
2018-05-02T08:12:04.523Z,39.20
2018-05-02T08:14:31.420Z,39.30
2018-05-02T08:16:58.160Z,40.30
2018-05-02T08:19:24.349Z,39.50
2018-05-02T08:21:51.294Z,39.10
2018-05-02T08:24:18.240Z,39.70
2018-05-02T08:26:45.185Z,37.10
2018-05-02T08:29:12.098Z,37.00
2018-05-02T08:31:38.877Z,37.10
2018-05-02T08:34:05.848Z,38.20
2018-05-02T08:36:32.979Z,38.10
2018-05-02T08:38:59.281Z,36.00
2018-05-02T08:41:26.715Z,35.90
2018-05-02T08:43:53.219Z,35.70
2018-05-02T08:46:19.950Z,36.10
2018-05-02T08:48:46.719Z,35.90
2018-05-02T08:51:13.482Z,37.10
2018-05-02T08:53:40.250Z,36.00
2018-05-02T08:56:07.218Z,36.30
2018-05-02T08:58:33.416Z,36.30
2018-05-02T09:01:00.534Z,35.20
2018-05-02T09:03:28.037Z,34.10
2018-05-02T09:05:54.789Z,34.10
2018-05-02T09:08:21.607Z,34.60
2018-05-02T09:10:49.099Z,35.50
2018-05-02T09:13:15.373Z,35.40
2018-05-02T09:15:41.560Z,34.60
2018-05-02T09:18:07.757Z,35.50
2018-05-02T09:20:35.370Z,35.40
2018-05-02T09:23:01.549Z,35.40
2018-05-02T09:25:27.741Z,34.30
2018-05-02T09:27:54.549Z,35.10
2018-05-02T09:30:21.292Z,34.80
2018-05-02T09:32:48.111Z,35.70
2018-05-02T09:35:14.927Z,36.00
2018-05-02T09:37:43.647Z,35.50
2018-05-02T09:40:10.890Z,35.50
2018-05-02T09:42:38.129Z,35.80
2018-05-02T09:45:04.922Z,36.70
2018-05-02T09:47:31.127Z,36.10
2018-05-02T09:49:58.124Z,37.00
2018-05-02T09:52:25.048Z,36.90
2018-05-02T09:54:51.319Z,36.90
2018-05-02T09:57:18.364Z,35.60
2018-05-02T09:59:45.488Z,36.40
2018-05-02T10:02:12.971Z,36.00
2018-05-02T10:04:39.200Z,35.90
2018-05-02T10:07:05.655Z,35.70
2018-05-02T10:09:31.855Z,35.00
2018-05-02T10:11:58.323Z,36.30
2018-05-02T10:14:25.071Z,35.20
2018-05-02T10:16:52.279Z,35.00
2018-05-02T10:19:18.981Z,35.00
2018-05-02T10:21:46.165Z,35.30
2018-05-02T10:24:14.383Z,34.90
2018-05-02T10:26:41.147Z,35.30
2018-05-02T10:29:07.327Z,34.80
2018-05-02T10:31:34.683Z,35.00
2018-05-02T10:34:01.377Z,35.00
2018-05-02T10:36:28.893Z,34.50
2018-05-02T10:38:55.082Z,34.50
2018-05-02T10:41:22.017Z,35.00
2018-05-02T10:43:49.531Z,35.70
2018-05-02T10:46:17.039Z,35.40
2018-05-02T10:48:43.992Z,35.40
2018-05-02T10:51:10.775Z,35.40
2018-05-02T10:53:37.543Z,34.70
2018-05-02T10:56:03.899Z,35.40
2018-05-02T10:58:30.554Z,35.30
2018-05-02T11:00:57.700Z,35.00
2018-05-02T11:03:25.689Z,35.10
2018-05-02T11:05:52.506Z,35.10
2018-05-02T11:08:19.280Z,34.90
2018-05-02T11:10:45.478Z,35.40
2018-05-02T11:13:11.672Z,35.00
2018-05-02T11:15:38.121Z,35.30
2018-05-02T11:18:05.185Z,35.50
2018-05-02T11:20:31.411Z,35.50
2018-05-02T11:22:57.662Z,36.20
2018-05-02T11:25:23.872Z,36.20
2018-05-02T11:27:50.715Z,36.30
2018-05-02T11:30:16.941Z,35.70
2018-05-02T11:32:43.169Z,36.30
2018-05-02T11:35:09.920Z,36.80
2018-05-02T11:37:36.157Z,36.60
2018-05-02T11:40:02.385Z,36.80
2018-05-02T11:42:28.580Z,36.10
2018-05-02T11:44:56.216Z,36.30
2018-05-02T11:47:22.826Z,36.50
2018-05-02T11:49:50.801Z,36.70
2018-05-02T11:52:18.743Z,37.10
2018-05-02T11:54:46.435Z,37.00
2018-05-02T11:57:13.253Z,37.30
2018-05-02T11:59:39.480Z,36.40
2018-05-02T12:02:05.839Z,36.70
2018-05-02T12:04:33.366Z,36.50
2018-05-02T12:06:59.604Z,36.50
2018-05-02T12:09:25.812Z,37.10
2018-05-02T12:11:53.283Z,37.50
2018-05-02T12:14:20.103Z,37.70
2018-05-02T12:16:46.310Z,37.50
2018-05-02T12:19:14.008Z,38.50
2018-05-02T12:21:41.097Z,36.70
2018-05-02T12:24:07.338Z,36.60
2018-05-02T12:26:35.365Z,37.50
2018-05-02T12:29:02.134Z,37.50
2018-05-02T12:31:28.842Z,36.90
2018-05-02T12:33:55.551Z,37.20
2018-05-02T12:36:22.041Z,37.10
2018-05-02T12:38:48.904Z,37.20
2018-05-02T12:41:16.506Z,36.60
2018-05-02T12:43:42.711Z,36.50
2018-05-02T12:46:08.886Z,36.40
2018-05-02T12:48:37.012Z,36.90
2018-05-02T12:51:04.695Z,36.90
2018-05-02T12:53:31.629Z,37.20
2018-05-02T12:55:58.766Z,36.60
2018-05-02T12:58:26.245Z,37.10
2018-05-02T13:00:53.565Z,36.70
2018-05-02T13:03:21.131Z,36.70
2018-05-02T13:05:48.104Z,36.20
2018-05-02T13:08:14.384Z,36.20
2018-05-02T13:10:41.162Z,36.80
2018-05-02T13:13:07.690Z,36.50
2018-05-02T13:15:34.408Z,36.70
2018-05-02T13:18:01.523Z,35.50
2018-05-02T13:20:28.183Z,35.50
2018-05-02T13:22:55.161Z,35.20
2018-05-02T13:25:21.512Z,35.20
2018-05-02T13:27:49.490Z,35.40
2018-05-02T13:30:15.751Z,36.00
2018-05-02T13:32:42.550Z,35.70
2018-05-02T13:35:08.750Z,35.50
2018-05-02T13:37:35.530Z,35.50
2018-05-02T13:40:01.715Z,35.20
2018-05-02T13:42:29.593Z,35.00
2018-05-02T13:44:56.332Z,35.00
2018-05-02T13:47:22.704Z,34.10
2018-05-02T13:49:50.313Z,34.80
2018-05-02T13:52:18.462Z,35.00
2018-05-02T13:54:44.729Z,35.00
2018-05-02T13:57:12.071Z,36.00
2018-05-02T13:59:39.002Z,35.20
2018-05-02T14:02:05.960Z,35.50
2018-05-02T14:04:32.870Z,36.30
2018-05-02T14:06:59.354Z,35.70
2018-05-02T14:09:27.338Z,35.80
2018-05-02T14:11:53.505Z,35.90
2018-05-02T14:14:19.707Z,35.70
2018-05-02T14:16:45.904Z,36.00
2018-05-02T14:19:13.238Z,35.50
2018-05-02T14:21:40.126Z,36.30
2018-05-02T14:24:07.410Z,37.40
2018-05-02T14:26:34.601Z,37.10
2018-05-02T14:29:00.780Z,37.00
2018-05-02T14:31:27.697Z,37.50
2018-05-02T14:33:53.901Z,37.70
2018-05-02T14:36:20.781Z,37.20
2018-05-02T14:38:47.099Z,36.70
2018-05-02T14:41:14.416Z,36.80
2018-05-02T14:43:41.502Z,37.60
2018-05-02T14:46:07.861Z,37.00
2018-05-02T14:48:34.797Z,37.10
2018-05-02T14:51:02.188Z,36.80
2018-05-02T14:53:29.654Z,37.50
2018-05-02T14:55:56.168Z,37.50
2018-05-02T14:58:23.665Z,37.60
2018-05-02T15:00:50.390Z,37.60
2018-05-02T15:03:16.593Z,37.80
2018-05-02T15:05:44.070Z,37.90
2018-05-02T15:08:10.548Z,37.90
2018-05-02T15:10:37.812Z,38.90
2018-05-02T15:13:04.748Z,39.60
2018-05-02T15:15:32.028Z,39.60
2018-05-02T15:17:59.668Z,39.80
2018-05-02T15:20:27.081Z,39.30
2018-05-02T15:22:53.588Z,39.30
2018-05-02T15:25:20.538Z,39.80
2018-05-02T15:27:48.013Z,40.00
2018-05-02T15:30:15.028Z,40.00
2018-05-02T15:32:42.276Z,40.50
2018-05-02T15:35:09.107Z,40.50
2018-05-02T15:37:35.829Z,40.70
2018-05-02T15:40:02.476Z,41.00
2018-05-02T15:42:29.456Z,40.60
2018-05-02T15:44:56.377Z,41.00
2018-05-02T15:47:24.170Z,40.90
2018-05-02T15:49:50.380Z,40.80
2018-05-02T15:52:17.327Z,40.90
2018-05-02T15:54:45.788Z,41.60
2018-05-02T15:57:12.880Z,41.80
2018-05-02T15:59:39.692Z,42.30
2018-05-02T16:02:06.709Z,41.90
2018-05-02T16:04:32.889Z,41.80
2018-05-02T16:06:59.062Z,42.10
2018-05-02T16:09:25.261Z,42.70
2018-05-02T16:11:52.103Z,42.10
2018-05-02T16:14:18.841Z,42.20
2018-05-02T16:16:46.091Z,42.30
2018-05-02T16:19:12.305Z,43.00
2018-05-02T16:21:38.572Z,42.50
2018-05-02T16:24:04.789Z,42.70
2018-05-02T16:26:30.987Z,43.00
2018-05-02T16:28:59.270Z,43.80
2018-05-02T16:31:26.167Z,43.80
2018-05-02T16:33:53.532Z,43.70
2018-05-02T16:36:21.650Z,44.10
2018-05-02T16:38:48.850Z,44.10
2018-05-02T16:41:15.048Z,44.10
2018-05-02T16:43:41.726Z,44.10
2018-05-02T16:46:09.204Z,43.80
2018-05-02T16:48:35.915Z,43.80
2018-05-02T16:51:02.131Z,44.60
2018-05-02T16:53:28.340Z,44.50
2018-05-02T16:55:54.530Z,44.70
2018-05-02T16:58:21.015Z,44.30
2018-05-02T17:00:48.010Z,44.70
2018-05-02T17:03:14.351Z,44.80
2018-05-02T17:05:41.912Z,45.00
2018-05-02T17:08:08.542Z,45.00
2018-05-02T17:10:36.128Z,45.00
2018-05-02T17:13:02.322Z,45.00
2018-05-02T17:15:28.943Z,45.10
2018-05-02T17:17:56.627Z,44.80
2018-05-02T17:20:29.857Z,44.80
2018-05-02T17:22:56.742Z,45.30
2018-05-02T17:25:24.180Z,45.90
2018-05-02T17:27:50.971Z,45.90
2018-05-02T17:30:17.712Z,45.60
2018-05-02T17:32:45.452Z,45.40
2018-05-02T17:35:11.958Z,45.40
2018-05-02T17:37:39.149Z,45.30
2018-05-02T17:40:06.215Z,45.00
2018-05-02T17:42:32.762Z,45.00
2018-05-02T17:44:59.878Z,46.20
2018-05-02T17:47:27.513Z,45.00
2018-05-02T17:49:54.596Z,45.30
2018-05-02T17:52:21.113Z,45.30
2018-05-02T17:54:48.632Z,47.50
2018-05-02T17:57:15.807Z,47.50
2018-05-02T17:59:42.880Z,47.60
2018-05-02T18:02:09.094Z,47.60
2018-05-02T18:04:36.045Z,47.20
2018-05-02T18:07:02.275Z,47.10
2018-05-02T18:09:29.000Z,47.20
2018-05-02T18:11:55.790Z,47.20
2018-05-02T18:14:23.008Z,47.60
2018-05-02T18:16:49.250Z,48.10
2018-05-02T18:19:15.448Z,48.50
2018-05-02T18:21:42.755Z,48.30
2018-05-02T18:24:09.581Z,48.30
2018-05-02T18:26:35.821Z,48.30
2018-05-02T18:29:02.985Z,48.40
2018-05-02T18:31:30.531Z,48.30
2018-05-02T18:33:56.778Z,48.60
2018-05-02T18:36:23.801Z,50.20
2018-05-02T18:38:50.925Z,51.80
2018-05-02T18:41:18.580Z,51.80
2018-05-02T18:43:44.822Z,51.70
2018-05-02T18:46:11.687Z,51.20
2018-05-02T18:48:37.954Z,51.70
2018-05-02T18:51:04.384Z,51.40
2018-05-02T18:53:31.445Z,51.80
2018-05-02T18:55:58.519Z,51.70
2018-05-02T18:58:25.753Z,52.20
2018-05-02T19:00:52.416Z,52.30
2018-05-02T19:03:19.144Z,52.70
2018-05-02T19:05:46.982Z,53.90
2018-05-02T19:08:14.189Z,54.00
2018-05-02T19:10:41.244Z,53.90
2018-05-02T19:13:08.514Z,54.00
2018-05-02T19:15:35.999Z,54.30
2018-05-02T19:18:09.375Z,54.70
2018-05-02T19:20:38.415Z,55.20
2018-05-02T19:23:05.833Z,55.10
2018-05-02T19:25:39.110Z,55.10
2018-05-02T19:28:07.242Z,55.80
2018-05-02T19:30:33.647Z,55.70
2018-05-02T19:33:06.672Z,55.70
2018-05-02T19:35:34.594Z,55.70
2018-05-02T19:38:01.124Z,55.80
2018-05-02T19:40:35.347Z,56.20
2018-05-02T19:43:08.328Z,56.20
2018-05-02T19:45:34.709Z,56.10
2018-05-02T19:48:01.840Z,56.80
2018-05-02T19:50:28.194Z,56.80
2018-05-02T19:52:55.595Z,56.60
2018-05-02T19:55:21.979Z,57.10
2018-05-02T19:57:48.849Z,56.60
2018-05-02T20:00:21.514Z,57.20
2018-05-02T20:02:54.513Z,57.20
2018-05-02T20:05:21.755Z,57.70
2018-05-02T20:07:48.018Z,57.20
2018-05-02T20:10:20.421Z,57.40
2018-05-02T20:12:53.454Z,57.30
2018-05-02T20:15:21.021Z,58.80
2018-05-02T20:17:49.010Z,59.60
2018-05-02T20:20:16.278Z,59.50
2018-05-02T20:22:42.535Z,59.10
2018-05-02T20:25:08.779Z,58.80
2018-05-02T20:27:35.011Z,58.90
2018-05-02T20:30:01.501Z,58.60
2018-05-02T20:32:28.686Z,58.80
2018-05-02T20:34:55.504Z,59.80
2018-05-02T20:37:22.423Z,59.90
2018-05-02T20:39:48.666Z,61.70
2018-05-02T20:42:15.849Z,60.30
2018-05-02T20:44:42.683Z,60.30
2018-05-02T20:47:10.596Z,61.40
2018-05-02T20:49:38.249Z,61.20
2018-05-02T20:52:06.156Z,61.00
2018-05-02T20:54:33.749Z,60.90
2018-05-02T20:57:00.796Z,61.40
2018-05-02T20:59:27.935Z,61.60
2018-05-02T21:01:55.908Z,60.50
2018-05-02T21:04:23.217Z,60.60
2018-05-02T21:06:51.233Z,60.90
2018-05-02T21:09:17.635Z,60.90
2018-05-02T21:11:45.040Z,61.50
2018-05-02T21:14:12.100Z,61.30
2018-05-02T21:16:39.807Z,60.40
2018-05-02T21:19:06.648Z,61.60
2018-05-02T21:21:32.870Z,61.00
2018-05-02T21:23:59.683Z,61.60
2018-05-02T21:26:27.227Z,61.40
2018-05-02T21:28:55.468Z,62.00
2018-05-02T21:31:22.209Z,62.00
2018-05-02T21:33:49.802Z,61.60
2018-05-02T21:36:17.292Z,61.70
2018-05-02T21:38:44.789Z,61.70
2018-05-02T21:41:11.582Z,61.90
2018-05-02T21:43:37.787Z,61.70
2018-05-02T21:46:05.146Z,62.90
2018-05-02T21:48:32.192Z,62.60
2018-05-02T21:50:58.475Z,62.60
2018-05-02T21:53:26.656Z,63.20
2018-05-02T21:55:54.211Z,62.50
2018-05-02T21:58:20.425Z,62.50
2018-05-02T22:00:46.738Z,63.70
2018-05-02T22:03:13.310Z,64.00
2018-05-02T22:05:40.879Z,63.80
2018-05-02T22:08:07.800Z,63.80
2018-05-02T22:10:34.817Z,64.20
2018-05-02T22:13:01.708Z,64.10
2018-05-02T22:15:28.011Z,64.10
2018-05-02T22:17:54.742Z,64.60
2018-05-02T22:20:21.475Z,64.30
2018-05-02T22:22:47.673Z,64.80
2018-05-02T22:25:14.805Z,65.20
2018-05-02T22:27:43.762Z,65.50
2018-05-02T22:30:10.529Z,65.30
2018-05-02T22:32:38.071Z,65.60
2018-05-02T22:35:04.584Z,66.00
2018-05-02T22:37:31.020Z,65.90
2018-05-02T22:39:57.815Z,65.80
2018-05-02T22:42:25.444Z,65.80
2018-05-02T22:44:51.647Z,65.80
2018-05-02T22:47:18.502Z,65.80
2018-05-02T22:49:45.805Z,66.30
2018-05-02T22:52:14.111Z,66.60
2018-05-02T22:54:41.928Z,66.60
2018-05-02T22:57:08.143Z,65.70
2018-05-02T22:59:34.345Z,65.80
2018-05-02T23:02:01.740Z,66.50
2018-05-02T23:04:28.017Z,66.60
2018-05-02T23:06:55.316Z,66.60
2018-05-02T23:09:21.966Z,66.60
2018-05-02T23:11:48.992Z,66.30
2018-05-02T23:14:15.645Z,66.20
2018-05-02T23:16:42.754Z,66.40
2018-05-02T23:19:10.204Z,66.30
2018-05-02T23:21:36.946Z,66.10
2018-05-02T23:24:03.198Z,66.20
2018-05-02T23:26:29.438Z,65.90
2018-05-02T23:28:56.009Z,66.00
2018-05-02T23:31:23.543Z,65.90
2018-05-02T23:33:49.766Z,65.90
2018-05-02T23:36:15.983Z,65.60
2018-05-02T23:38:43.253Z,66.20
2018-05-02T23:41:10.811Z,66.50
2018-05-02T23:43:37.152Z,66.50
2018-05-02T23:46:05.146Z,66.80
2018-05-02T23:48:31.352Z,66.80
2018-05-02T23:50:58.320Z,66.40
2018-05-02T23:53:24.709Z,66.30
2018-05-02T23:55:51.991Z,66.70
2018-05-02T23:58:19.280Z,67.20
